createdAt,value
2018-07-14T00:01:49.704Z,4.33
2018-07-14T00:04:16.982Z,4.37
2018-07-14T00:06:44.276Z,4.17
2018-07-14T00:09:11.577Z,4.20
2018-07-14T00:11:38.853Z,4.47
2018-07-14T00:14:06.156Z,3.57
2018-07-14T00:16:33.460Z,3.87
2018-07-14T00:19:00.741Z,3.80
2018-07-14T00:21:28.346Z,4.40
2018-07-14T00:23:55.643Z,4.80
2018-07-14T00:26:22.944Z,5.07
2018-07-14T00:28:50.222Z,4.10
2018-07-14T00:31:17.508Z,3.83
2018-07-14T00:33:44.778Z,4.83
2018-07-14T00:36:12.080Z,4.00
2018-07-14T00:38:39.360Z,4.80
2018-07-14T00:41:06.648Z,4.00
2018-07-14T00:43:33.941Z,4.90
2018-07-14T00:46:01.453Z,4.03
2018-07-14T00:48:28.741Z,4.00
2018-07-14T00:50:56.017Z,4.80
2018-07-14T00:53:23.304Z,3.40
2018-07-14T00:55:50.605Z,4.40
2018-07-14T00:58:18.140Z,4.07
2018-07-14T01:00:45.411Z,4.20
2018-07-14T01:03:12.715Z,3.37
2018-07-14T01:05:39.993Z,4.07
2018-07-14T01:08:07.260Z,3.47
2018-07-14T01:10:34.711Z,3.10
2018-07-14T01:13:01.989Z,3.80
2018-07-14T01:15:29.296Z,4.27
2018-07-14T01:17:56.621Z,3.20
2018-07-14T01:20:23.898Z,3.70
2018-07-14T01:22:51.371Z,3.10
2018-07-14T01:25:18.712Z,3.10
2018-07-14T01:27:45.996Z,3.00
2018-07-14T01:30:13.343Z,3.27
2018-07-14T01:32:40.772Z,3.57
2018-07-14T01:35:08.252Z,2.80
2018-07-14T01:37:35.720Z,2.93
2018-07-14T01:40:03.045Z,3.10
2018-07-14T01:42:30.383Z,2.83
2018-07-14T01:44:57.710Z,3.57
2018-07-14T01:47:24.995Z,2.93
2018-07-14T01:49:52.289Z,2.87
2018-07-14T01:52:19.585Z,2.80
2018-07-14T01:54:46.897Z,2.67
2018-07-14T01:57:14.213Z,2.53
2018-07-14T01:59:41.500Z,3.20
2018-07-14T02:02:08.796Z,2.70
2018-07-14T02:04:36.068Z,2.90
2018-07-14T02:07:03.365Z,3.00
2018-07-14T02:09:30.676Z,2.80
2018-07-14T02:11:57.945Z,2.77
2018-07-14T02:14:25.248Z,2.87
2018-07-14T02:16:52.534Z,3.40
2018-07-14T02:19:19.796Z,3.13
2018-07-14T02:21:47.079Z,2.73
2018-07-14T02:24:15.153Z,3.80
2018-07-14T02:26:42.443Z,2.70
2018-07-14T02:29:09.720Z,2.67
2018-07-14T02:31:37.029Z,2.93
2018-07-14T02:34:04.328Z,3.10
2018-07-14T02:36:31.629Z,2.87
2018-07-14T02:38:58.922Z,3.10
2018-07-14T02:41:26.188Z,2.47
2018-07-14T02:43:53.473Z,2.87
2018-07-14T02:46:20.757Z,3.37
2018-07-14T02:48:48.080Z,3.27
2018-07-14T02:51:15.382Z,2.80
2018-07-14T02:53:42.681Z,3.10
2018-07-14T02:56:09.993Z,2.63
2018-07-14T02:58:37.277Z,2.90
2018-07-14T03:01:04.659Z,2.67
2018-07-14T03:03:31.931Z,2.60
2018-07-14T03:05:59.221Z,3.47
2018-07-14T03:08:26.500Z,3.10
2018-07-14T03:10:53.780Z,2.67
2018-07-14T03:13:21.050Z,2.80
2018-07-14T03:15:48.329Z,2.70
2018-07-14T03:18:15.625Z,2.90
2018-07-14T03:20:42.912Z,2.77
2018-07-14T03:23:10.198Z,2.50
2018-07-14T03:25:37.765Z,2.93
2018-07-14T03:28:05.660Z,2.73
2018-07-14T03:30:32.933Z,3.30
2018-07-14T03:33:00.234Z,3.50
2018-07-14T03:35:27.548Z,2.60
2018-07-14T03:37:54.824Z,3.00
2018-07-14T03:40:22.248Z,2.90
2018-07-14T03:42:49.568Z,3.10
2018-07-14T03:45:16.880Z,3.00
2018-07-14T03:47:44.164Z,3.37
2018-07-14T03:50:11.480Z,2.90
2018-07-14T03:52:38.780Z,2.77
2018-07-14T03:55:06.853Z,3.50
2018-07-14T03:57:34.292Z,3.37
2018-07-14T04:00:01.568Z,2.77
2018-07-14T04:02:28.842Z,2.70
2018-07-14T04:04:56.241Z,2.77
2018-07-14T04:07:23.504Z,3.10
2018-07-14T04:09:50.866Z,3.10
2018-07-14T04:12:18.169Z,3.33
2018-07-14T04:14:45.484Z,3.17
2018-07-14T04:17:12.741Z,3.53
2018-07-14T04:19:40.037Z,3.57
2018-07-14T04:22:07.340Z,3.63
2018-07-14T04:24:34.624Z,3.23
2018-07-14T04:27:02.157Z,3.90
2018-07-14T04:29:29.442Z,3.80
2018-07-14T04:31:56.724Z,4.00
2018-07-14T04:34:23.977Z,3.50
2018-07-14T04:36:51.439Z,4.00
2018-07-14T04:39:18.733Z,4.10
2018-07-14T04:41:46.016Z,3.93
2018-07-14T04:44:13.344Z,3.67
2018-07-14T04:46:40.753Z,3.77
2018-07-14T04:49:08.048Z,3.60
2018-07-14T04:51:35.334Z,4.33
2018-07-14T04:54:02.628Z,3.83
2018-07-14T04:56:29.904Z,3.87
2018-07-14T04:58:57.168Z,4.00
2018-07-14T05:01:24.485Z,3.03
2018-07-14T05:03:51.801Z,3.87
2018-07-14T05:06:19.106Z,3.90
2018-07-14T05:08:46.401Z,3.90
2018-07-14T05:11:13.684Z,3.57
2018-07-14T05:13:40.965Z,3.33
2018-07-14T05:16:08.245Z,4.00
2018-07-14T05:18:35.576Z,3.93
2018-07-14T05:21:02.873Z,4.10
2018-07-14T05:23:30.185Z,3.27
2018-07-14T05:25:57.458Z,3.00
2018-07-14T05:28:24.992Z,3.10
2018-07-14T05:30:52.261Z,3.33
2018-07-14T05:33:19.608Z,4.40
2018-07-14T05:35:46.896Z,3.60
2018-07-14T05:38:14.185Z,3.60
2018-07-14T05:40:41.454Z,3.00
2018-07-14T05:43:08.724Z,3.60
2018-07-14T05:45:36.033Z,3.27
2018-07-14T05:48:03.329Z,3.53
2018-07-14T05:50:30.669Z,3.17
2018-07-14T05:52:57.964Z,3.63
2018-07-14T05:55:25.406Z,3.13
2018-07-14T05:57:52.694Z,3.20
2018-07-14T06:00:20.013Z,3.30
2018-07-14T06:02:47.293Z,2.83
2018-07-14T06:05:14.581Z,3.43
2018-07-14T06:07:41.919Z,3.70
2018-07-14T06:10:09.160Z,3.37
2018-07-14T06:12:36.441Z,2.37
2018-07-14T06:15:03.865Z,3.30
2018-07-14T06:17:31.137Z,2.57
2018-07-14T06:19:58.420Z,2.60
2018-07-14T06:22:25.688Z,2.23
2018-07-14T06:24:52.972Z,2.20
2018-07-14T06:27:20.252Z,2.13
2018-07-14T06:29:47.683Z,2.60
2018-07-14T06:32:14.985Z,1.80
2018-07-14T06:34:42.385Z,2.87
2018-07-14T06:37:09.694Z,2.43
2018-07-14T06:39:36.982Z,1.90
2018-07-14T06:42:04.319Z,2.10
2018-07-14T06:44:31.636Z,1.70
2018-07-14T06:46:58.921Z,2.10
2018-07-14T06:49:26.247Z,1.97
2018-07-14T06:51:53.528Z,2.23
2018-07-14T06:54:20.852Z,2.50
2018-07-14T06:56:48.167Z,2.07
2018-07-14T06:59:15.457Z,2.30
2018-07-14T07:01:42.772Z,2.37
2018-07-14T07:04:10.065Z,1.60
2018-07-14T07:06:37.377Z,2.07
2018-07-14T07:09:04.729Z,1.70
2018-07-14T07:11:32.061Z,1.93
2018-07-14T07:13:59.876Z,2.67
2018-07-14T07:16:27.228Z,2.00
2018-07-14T07:18:54.496Z,1.40
2018-07-14T07:21:21.847Z,1.73
2018-07-14T07:23:49.117Z,1.50
2018-07-14T07:26:16.425Z,1.80
2018-07-14T07:28:43.759Z,2.00
2018-07-14T07:31:11.213Z,1.00
2018-07-14T07:33:38.524Z,1.10
2018-07-14T07:36:05.829Z,1.60
2018-07-14T07:38:33.117Z,0.97
2018-07-14T07:41:00.460Z,2.60
2018-07-14T07:43:27.794Z,3.80
2018-07-14T07:45:55.065Z,1.67
2018-07-14T07:48:22.567Z,1.60
2018-07-14T07:50:49.856Z,1.40
2018-07-14T07:53:17.287Z,1.37
2018-07-14T07:55:44.580Z,0.80
2018-07-14T07:58:11.865Z,1.20
2018-07-14T08:00:39.152Z,0.97
2018-07-14T08:03:06.456Z,1.27
2018-07-14T08:05:33.736Z,0.97
2018-07-14T08:08:01.004Z,1.10
2018-07-14T08:10:28.280Z,1.23
2018-07-14T08:12:55.612Z,1.00
2018-07-14T08:15:22.922Z,1.03
2018-07-14T08:17:50.192Z,1.00
2018-07-14T08:20:17.485Z,1.00
2018-07-14T08:22:44.790Z,1.07
2018-07-14T08:25:12.070Z,1.03
2018-07-14T08:27:39.520Z,1.67
2018-07-14T08:30:06.808Z,2.90
2018-07-14T08:32:34.296Z,1.23
2018-07-14T08:35:01.685Z,1.63
2018-07-14T08:37:28.974Z,1.00
2018-07-14T08:39:56.272Z,0.97
2018-07-14T08:42:23.572Z,1.10
2018-07-14T08:44:50.864Z,1.17
2018-07-14T08:47:18.149Z,1.00
2018-07-14T08:49:45.438Z,0.60
2018-07-14T08:52:12.709Z,0.80
2018-07-14T08:54:40.013Z,0.80
2018-07-14T08:57:07.281Z,0.80
2018-07-14T08:59:34.637Z,0.70
2018-07-14T09:02:02.013Z,0.60
2018-07-14T09:04:29.300Z,0.80
2018-07-14T09:06:56.774Z,0.90
2018-07-14T09:09:24.056Z,0.80
2018-07-14T09:11:51.473Z,0.90
2018-07-14T09:14:18.757Z,0.80
2018-07-14T09:16:46.089Z,0.80
2018-07-14T09:19:13.385Z,1.20
2018-07-14T09:21:40.680Z,1.30
2018-07-14T09:24:07.980Z,1.13
2018-07-14T09:26:35.296Z,1.13
2018-07-14T09:29:02.625Z,1.03
2018-07-14T09:31:29.912Z,1.33
2018-07-14T09:33:57.402Z,2.30
2018-07-14T09:36:24.693Z,1.20
2018-07-14T09:38:51.997Z,1.13
2018-07-14T09:41:19.296Z,1.10
2018-07-14T09:43:46.649Z,1.40
2018-07-14T09:46:13.957Z,1.20
2018-07-14T09:48:41.268Z,0.97
2018-07-14T09:51:08.573Z,1.10
2018-07-14T09:53:35.848Z,0.80
2018-07-14T09:56:03.141Z,0.80
2018-07-14T09:58:30.453Z,0.90
2018-07-14T10:01:03.608Z,0.90
2018-07-14T10:03:31.017Z,1.00
2018-07-14T10:05:58.284Z,1.00
2018-07-14T10:08:25.546Z,1.00
2018-07-14T10:10:52.822Z,1.30
2018-07-14T10:13:20.234Z,0.93
2018-07-14T10:15:47.436Z,1.33
2018-07-14T10:18:14.813Z,0.93
2018-07-14T10:20:42.182Z,0.90
2018-07-14T10:23:09.480Z,0.90
2018-07-14T10:25:36.892Z,1.10
2018-07-14T10:28:04.113Z,1.10
2018-07-14T10:30:31.397Z,1.80
2018-07-14T10:32:58.730Z,2.17
2018-07-14T10:35:26.197Z,1.80
2018-07-14T10:37:53.500Z,1.50
2018-07-14T10:40:20.792Z,1.50
2018-07-14T10:42:48.152Z,0.93
2018-07-14T10:45:15.580Z,0.87
2018-07-14T10:47:42.896Z,1.03
2018-07-14T10:50:10.239Z,1.07
2018-07-14T10:52:37.529Z,1.20
2018-07-14T10:55:05.030Z,1.27
2018-07-14T10:57:32.309Z,0.93
2018-07-14T10:59:59.624Z,1.00
2018-07-14T11:02:26.933Z,1.13
2018-07-14T11:04:54.305Z,1.10
2018-07-14T11:07:21.577Z,1.40
2018-07-14T11:09:48.890Z,0.90
2018-07-14T11:12:16.276Z,1.17
2018-07-14T11:14:43.530Z,1.00
2018-07-14T11:17:10.854Z,1.00
2018-07-14T11:19:38.157Z,1.07
2018-07-14T11:22:05.469Z,1.20
2018-07-14T11:24:32.792Z,1.47
2018-07-14T11:27:00.113Z,2.30
2018-07-14T11:29:27.412Z,1.70
2018-07-14T11:31:54.710Z,1.60
2018-07-14T11:34:22.000Z,1.60
2018-07-14T11:36:49.693Z,1.07
2018-07-14T11:39:16.989Z,1.00
2018-07-14T11:41:44.312Z,1.00
2018-07-14T11:44:11.573Z,0.90
2018-07-14T11:46:38.881Z,1.13
2018-07-14T11:49:06.172Z,1.30
2018-07-14T11:51:33.471Z,1.17
2018-07-14T11:54:00.764Z,1.07
2018-07-14T11:56:28.052Z,1.43
2018-07-14T11:58:55.324Z,1.47
2018-07-14T12:01:22.691Z,1.23
2018-07-14T12:03:49.919Z,1.30
2018-07-14T12:06:17.202Z,1.00
2018-07-14T12:08:44.488Z,0.70
2018-07-14T12:11:11.772Z,1.60
2018-07-14T12:13:39.087Z,1.27
2018-07-14T12:16:06.406Z,1.67
2018-07-14T12:18:33.663Z,1.40
2018-07-14T12:21:00.944Z,1.43
2018-07-14T12:23:28.240Z,1.43
2018-07-14T12:25:55.530Z,1.50
2018-07-14T12:28:22.817Z,1.90
2018-07-14T12:30:50.886Z,1.40
2018-07-14T12:33:18.205Z,1.40
2018-07-14T12:35:45.468Z,1.90
2018-07-14T12:38:13.001Z,1.77
2018-07-14T12:40:40.296Z,1.50
2018-07-14T12:43:07.593Z,1.33
2018-07-14T12:45:34.861Z,1.47
2018-07-14T12:48:02.135Z,1.53
2018-07-14T12:50:29.416Z,1.20
2018-07-14T12:52:56.740Z,1.50
2018-07-14T12:55:24.033Z,1.97
2018-07-14T12:57:51.320Z,1.30
2018-07-14T13:00:18.605Z,1.47
2018-07-14T13:02:45.901Z,1.70
2018-07-14T13:05:13.209Z,1.10
2018-07-14T13:07:40.573Z,1.27
2018-07-14T13:10:07.816Z,0.80
2018-07-14T13:12:35.244Z,0.90
2018-07-14T13:15:02.546Z,1.20
2018-07-14T13:17:29.839Z,0.87
2018-07-14T13:19:57.136Z,0.70
2018-07-14T13:22:24.409Z,1.20
2018-07-14T13:24:51.697Z,1.20
2018-07-14T13:27:18.978Z,1.20
2018-07-14T13:29:46.282Z,1.50
2018-07-14T13:32:13.569Z,1.83
2018-07-14T13:34:40.832Z,1.40
2018-07-14T13:37:08.125Z,0.80
2018-07-14T13:39:35.689Z,1.00
2018-07-14T13:42:02.996Z,1.30
2018-07-14T13:44:30.309Z,1.10
2018-07-14T13:46:57.620Z,0.97
2018-07-14T13:49:24.904Z,1.13
2018-07-14T13:51:52.210Z,1.00
2018-07-14T13:54:19.545Z,0.90
2018-07-14T13:56:46.841Z,0.90
2018-07-14T13:59:14.129Z,1.00
2018-07-14T14:01:41.528Z,1.10
2018-07-14T14:04:08.829Z,1.20
2018-07-14T14:06:36.113Z,0.80
2018-07-14T14:09:04.188Z,1.10
2018-07-14T14:11:31.473Z,1.20
2018-07-14T14:13:58.756Z,2.00
2018-07-14T14:16:26.118Z,2.50
2018-07-14T14:18:53.404Z,1.27
2018-07-14T14:21:20.716Z,0.80
2018-07-14T14:23:48.062Z,0.80
2018-07-14T14:26:15.370Z,0.70
2018-07-14T14:28:42.657Z,0.90
2018-07-14T14:31:09.940Z,1.10
2018-07-14T14:33:37.216Z,0.83
2018-07-14T14:36:04.509Z,0.90
2018-07-14T14:38:31.949Z,1.30
2018-07-14T14:40:59.460Z,0.93
2018-07-14T14:43:26.849Z,1.00
2018-07-14T14:45:54.189Z,1.30
2018-07-14T14:48:21.481Z,0.80
2018-07-14T14:50:48.780Z,1.00
2018-07-14T14:53:16.070Z,1.00
2018-07-14T14:55:43.368Z,1.07
2018-07-14T14:58:10.666Z,1.23
2018-07-14T15:00:37.961Z,1.40
2018-07-14T15:03:05.245Z,1.80
2018-07-14T15:05:32.542Z,1.70
2018-07-14T15:07:59.840Z,1.90
2018-07-14T15:10:27.144Z,1.53
2018-07-14T15:12:54.460Z,1.00
2018-07-14T15:15:21.728Z,1.27
2018-07-14T15:17:49.068Z,1.17
2018-07-14T15:20:16.345Z,1.23
2018-07-14T15:22:43.649Z,0.97
2018-07-14T15:25:10.929Z,1.00
2018-07-14T15:27:38.205Z,0.90
2018-07-14T15:30:06.921Z,1.03
2018-07-14T15:32:34.254Z,1.00
2018-07-14T15:35:01.514Z,1.37
2018-07-14T15:37:28.805Z,1.43
2018-07-14T15:39:56.084Z,1.50
2018-07-14T15:42:23.621Z,0.80
2018-07-14T15:44:50.917Z,1.73
2018-07-14T15:47:18.209Z,1.53
2018-07-14T15:49:45.509Z,1.27
2018-07-14T15:52:13.105Z,1.37
2018-07-14T15:54:40.574Z,1.20
2018-07-14T15:57:07.885Z,0.90
2018-07-14T15:59:35.348Z,1.00
2018-07-14T16:02:02.642Z,0.90
2018-07-14T16:04:30.020Z,0.87
2018-07-14T16:06:57.332Z,1.00
2018-07-14T16:09:24.596Z,1.00
2018-07-14T16:11:51.885Z,0.90
2018-07-14T16:14:19.168Z,1.10
2018-07-14T16:16:46.496Z,1.03
2018-07-14T16:19:13.919Z,0.90
2018-07-14T16:21:41.261Z,0.70
2018-07-14T16:24:08.588Z,0.93
2018-07-14T16:26:35.997Z,0.80
2018-07-14T16:29:03.330Z,0.70
2018-07-14T16:31:30.632Z,0.90
2018-07-14T16:33:58.081Z,0.97
2018-07-14T16:36:25.393Z,0.80
2018-07-14T16:38:52.721Z,0.90
2018-07-14T16:41:20.053Z,0.90
2018-07-14T16:43:47.573Z,1.17
2018-07-14T16:46:14.892Z,0.70
2018-07-14T16:48:42.172Z,0.70
2018-07-14T16:51:09.480Z,0.87
2018-07-14T16:53:36.834Z,0.97
2018-07-14T16:56:04.144Z,0.90
2018-07-14T16:58:31.479Z,0.83
2018-07-14T17:00:58.739Z,1.00
2018-07-14T17:03:26.049Z,1.60
2018-07-14T17:05:53.404Z,3.43
2018-07-14T17:08:20.697Z,1.77
2018-07-14T17:10:48.010Z,2.00
2018-07-14T17:13:15.289Z,1.40
2018-07-14T17:15:42.585Z,7.03
2018-07-14T17:18:09.922Z,1.37
2018-07-14T17:20:37.219Z,1.20
2018-07-14T17:23:04.560Z,1.00
2018-07-14T17:25:31.876Z,2.03
2018-07-14T17:27:59.192Z,1.00
2018-07-14T17:30:26.521Z,1.10
2018-07-14T17:32:53.808Z,1.00
2018-07-14T17:35:21.120Z,1.10
2018-07-14T17:37:48.395Z,1.10
2018-07-14T17:40:15.705Z,1.10
2018-07-14T17:42:42.968Z,0.90
2018-07-14T17:45:10.463Z,1.37
2018-07-14T17:47:37.757Z,1.17
2018-07-14T17:50:05.048Z,0.90
2018-07-14T17:52:32.309Z,1.03
2018-07-14T17:54:59.620Z,1.10
2018-07-14T17:57:26.920Z,1.20
2018-07-14T17:59:54.293Z,0.97
2018-07-14T18:02:21.569Z,0.90
2018-07-14T18:04:48.904Z,1.20
2018-07-14T18:07:16.185Z,1.20
2018-07-14T18:09:43.468Z,1.00
2018-07-14T18:12:10.744Z,1.53
2018-07-14T18:14:38.039Z,1.40
2018-07-14T18:17:05.357Z,1.50
2018-07-14T18:19:32.628Z,1.60
2018-07-14T18:22:00.018Z,1.33
2018-07-14T18:24:27.340Z,1.10
2018-07-14T18:26:54.640Z,1.20
2018-07-14T18:29:21.949Z,1.00
2018-07-14T18:31:49.282Z,0.80
2018-07-14T18:34:16.561Z,1.10
2018-07-14T18:36:43.902Z,1.23
2018-07-14T18:39:11.140Z,1.60
2018-07-14T18:41:38.420Z,1.27
2018-07-14T18:44:05.705Z,1.47
2018-07-14T18:46:33.133Z,1.20
2018-07-14T18:49:00.425Z,0.80
2018-07-14T18:51:27.745Z,1.13
2018-07-14T18:53:55.381Z,1.03
2018-07-14T18:56:22.817Z,0.90
2018-07-14T18:58:50.161Z,1.10
2018-07-14T19:01:17.486Z,0.93
2018-07-14T19:03:44.760Z,1.43
2018-07-14T19:06:12.042Z,3.40
2018-07-14T19:08:39.338Z,1.60
2018-07-14T19:11:06.620Z,1.20
2018-07-14T19:13:33.908Z,1.20
2018-07-14T19:16:01.217Z,1.50
2018-07-14T19:18:28.506Z,1.30
2018-07-14T19:20:55.828Z,1.37
2018-07-14T19:23:23.140Z,1.53
2018-07-14T19:25:50.504Z,1.50
2018-07-14T19:28:17.724Z,1.60
2018-07-14T19:30:45.009Z,1.67
2018-07-14T19:33:12.305Z,1.57
2018-07-14T19:35:39.642Z,1.70
2018-07-14T19:38:06.932Z,1.40
2018-07-14T19:40:34.228Z,1.80
2018-07-14T19:43:01.537Z,1.50
2018-07-14T19:45:28.809Z,1.60
2018-07-14T19:47:56.368Z,1.93
2018-07-14T19:50:23.648Z,1.50
2018-07-14T19:52:51.070Z,1.50
2018-07-14T19:55:18.353Z,1.80
2018-07-14T19:57:45.621Z,1.67
2018-07-14T20:00:12.937Z,1.77
2018-07-14T20:02:40.244Z,2.30
2018-07-14T20:05:07.528Z,1.90
2018-07-14T20:07:34.824Z,1.80
2018-07-14T20:10:02.197Z,1.40
2018-07-14T20:12:29.473Z,1.90
2018-07-14T20:14:56.756Z,1.80
2018-07-14T20:17:24.045Z,2.13
2018-07-14T20:19:51.342Z,2.17
2018-07-14T20:22:18.677Z,2.33
2018-07-14T20:24:45.972Z,2.47
2018-07-14T20:27:13.288Z,3.00
2018-07-14T20:29:40.864Z,3.00
2018-07-14T20:32:08.206Z,2.20
2018-07-14T20:34:35.520Z,2.60
2018-07-14T20:37:02.809Z,2.37
2018-07-14T20:39:30.123Z,2.33
2018-07-14T20:41:59.910Z,2.40
2018-07-14T20:44:29.995Z,2.63
2018-07-14T20:46:57.857Z,2.67
2018-07-14T20:49:27.915Z,2.20
2018-07-14T20:51:57.855Z,1.90
2018-07-14T20:54:25.509Z,2.43
2018-07-14T20:56:52.885Z,2.70
2018-07-14T20:59:20.165Z,2.40
2018-07-14T21:01:47.478Z,2.13
2018-07-14T21:04:14.745Z,2.73
2018-07-14T21:06:42.033Z,2.20
2018-07-14T21:09:09.335Z,2.70
2018-07-14T21:11:36.648Z,2.43
2018-07-14T21:14:04.205Z,2.90
2018-07-14T21:16:31.497Z,3.20
2018-07-14T21:18:58.808Z,2.63
2018-07-14T21:21:26.276Z,2.60
2018-07-14T21:23:53.432Z,2.43
2018-07-14T21:26:20.712Z,3.03
2018-07-14T21:28:48.137Z,2.00
2018-07-14T21:31:15.657Z,2.93
2018-07-14T21:33:42.936Z,2.63
2018-07-14T21:36:10.246Z,2.70
2018-07-14T21:38:37.544Z,3.60
2018-07-14T21:41:04.865Z,3.00
2018-07-14T21:43:32.185Z,3.97
2018-07-14T21:45:59.782Z,2.80
2018-07-14T21:48:27.152Z,3.13
2018-07-14T21:50:54.676Z,3.07
2018-07-14T21:53:21.959Z,2.70
2018-07-14T21:55:49.293Z,3.10
2018-07-14T21:58:16.588Z,3.20
2018-07-14T22:00:49.622Z,3.20
2018-07-14T22:03:16.922Z,3.30
2018-07-14T22:05:44.209Z,4.03
2018-07-14T22:08:11.497Z,3.20
2018-07-14T22:10:38.782Z,3.27
2018-07-14T22:13:06.078Z,3.30
2018-07-14T22:15:33.372Z,3.60
2018-07-14T22:18:00.657Z,4.27
2018-07-14T22:20:27.940Z,4.60
2018-07-14T22:22:55.236Z,4.20
2018-07-14T22:25:22.554Z,4.00
2018-07-14T22:27:49.836Z,3.90
2018-07-14T22:30:17.132Z,3.70
2018-07-14T22:32:44.441Z,4.10
2018-07-14T22:35:11.728Z,3.80
2018-07-14T22:37:39.028Z,3.67
2018-07-14T22:40:06.316Z,4.27
2018-07-14T22:42:33.592Z,4.17
2018-07-14T22:45:00.884Z,4.20
2018-07-14T22:47:28.184Z,4.53
2018-07-14T22:49:55.525Z,4.80
2018-07-14T22:52:22.992Z,4.17
2018-07-14T22:54:50.301Z,4.83
2018-07-14T22:57:17.724Z,4.37
2018-07-14T22:59:45.021Z,4.20
2018-07-14T23:02:12.284Z,4.07
2018-07-14T23:04:39.573Z,4.80
2018-07-14T23:07:06.840Z,3.93
2018-07-14T23:09:34.127Z,4.03
2018-07-14T23:12:01.437Z,3.80
2018-07-14T23:14:28.700Z,4.60
2018-07-14T23:16:56.025Z,3.60
2018-07-14T23:19:23.331Z,3.70
2018-07-14T23:21:50.600Z,3.73
2018-07-14T23:24:17.904Z,3.77
2018-07-14T23:26:45.202Z,3.60
2018-07-14T23:29:12.480Z,3.50
2018-07-14T23:31:39.788Z,3.40
2018-07-14T23:34:07.088Z,3.73
2018-07-14T23:36:34.360Z,3.60
2018-07-14T23:39:01.703Z,3.60
2018-07-14T23:41:28.969Z,3.20
2018-07-14T23:43:56.261Z,3.57
2018-07-14T23:46:23.704Z,2.93
2018-07-14T23:48:51.006Z,3.23
2018-07-14T23:51:18.273Z,4.80
2018-07-14T23:53:45.731Z,6.27
2018-07-14T23:56:13.058Z,4.83
2018-07-14T23:58:40.321Z,3.70
